Terminal Aerodrome Forecast
Issued by NWS

Home | Current Version | Previous Version | Text Only | Print | Product List | Glossary On
Versions: 1 2 3 4 5 6 7 8 9 10 11 12 13 14
815
FTUS43 KFGF 052320
TAFTVF
TAF
KTVF 052320Z 0600/0624 23013KT P6SM FEW250
     FM060700 21009KT P6SM FEW250 WS020/24040KT
     FM060900 20009KT P6SM FEW250
     FM061600 28016G24KT P6SM SCT250
     FM062000 34020G31KT P6SM SCT200
      AMD LTD TO CLD VIS AND WIND=

USA.gov is the U.S. government's official web portal to all federal, state and local government web resources and services.